Time;durP1;ratioP1;P1;durP2;ratioP2;P2;SDS_P1;SDS_P2;PMS_P1;PMS_P2;Temp;Humidity;BMP_temperature;BMP_pressure;BME280_temperature;BME280_humidity;BME280_pressure;Samples;Min_cycle;Max_cycle;Signal;HPM_P1;HPM_P2
2023/05/12 00:01:37;9742.00;0.03;17.50;0.00;0.00;0.62;;;;;15.80;1.00;;;;;;2255718;61;925;-84
2023/05/12 00:04:04;80004.00;0.27;139.04;0.00;0.00;0.62;;;;;15.90;1.00;;;;;;2255648;61;1403;-88
2023/05/12 00:06:31;24534.00;0.08;43.12;0.00;0.00;0.62;;;;;15.90;1.00;;;;;;2254630;61;1729;-84
2023/05/12 00:08:59;83703.00;0.28;145.43;17705.00;0.06;31.30;;;;;15.90;1.00;;;;;;2255604;61;1163;-88
2023/05/12 00:11:26;20881.00;0.07;36.80;0.00;0.00;0.62;;;;;15.90;1.00;;;;;;2255729;61;1113;-87
2023/05/12 00:13:54;78332.00;0.26;136.16;0.00;0.00;0.62;;;;;16.20;1.00;;;;;;2255589;61;1429;-87
2023/05/12 00:16:22;93017.00;0.31;161.52;0.00;0.00;0.62;;;;;16.00;1.00;;;;;;2255474;61;1120;-87
2023/05/12 00:18:50;33784.00;0.11;59.13;0.00;0.00;0.62;;;;;16.00;1.00;;;;;;2255917;61;2002;-88
2023/05/12 00:21:17;92583.00;0.31;160.77;0.00;0.00;0.62;;;;;15.90;1.00;;;;;;2256284;61;1138;-88
2023/05/12 00:23:44;84878.00;0.28;147.46;0.00;0.00;0.62;;;;;15.90;1.00;;;;;;2256354;61;1375;-86
2023/05/12 00:26:12;294611.00;0.98;508.66;66232.00;0.22;115.25;;;;;16.00;1.00;;;;;;2256302;61;1127;-88
2023/05/12 00:28:39;67404.00;0.22;117.27;0.00;0.00;0.62;;;;;16.30;1.00;;;;;;2256335;61;932;-85
2023/05/12 00:31:06;122073.00;0.41;211.66;0.00;0.00;0.62;;;;;16.10;1.00;;;;;;2256281;61;1171;-88
2023/05/12 00:33:33;33487.00;0.11;58.62;0.00;0.00;0.62;;;;;16.00;1.00;;;;;;2256308;61;1412;-87
2023/05/12 00:36:02;38520.00;0.13;67.33;0.00;0.00;0.62;;;;;15.90;1.00;;;;;;2256161;61;1676;-87
2023/05/12 00:38:29;74015.00;0.25;128.70;0.00;0.00;0.62;;;;;15.90;1.00;;;;;;2256246;61;1919;-88
2023/05/12 00:40:56;42517.00;0.14;74.24;0.00;0.00;0.62;;;;;16.00;1.00;;;;;;2256318;61;1021;-89
2023/05/12 00:43:24;13062.00;0.04;23.25;0.00;0.00;0.62;;;;;16.20;1.00;;;;;;2256219;61;1380;-88
2023/05/12 00:45:51;27435.00;0.09;48.14;0.00;0.00;0.62;;;;;16.30;1.00;;;;;;2256305;61;1040;-87
2023/05/12 00:48:18;35841.00;0.12;62.69;0.00;0.00;0.62;;;;;16.30;1.00;;;;;;2256229;61;1043;-88
2023/05/12 00:50:45;69825.00;0.23;121.46;0.00;0.00;0.62;;;;;16.40;1.00;;;;;;2256300;61;1220;-88
2023/05/12 00:53:13;34456.00;0.11;60.30;0.00;0.00;0.62;;;;;16.70;1.00;;;;;;2256239;61;1344;-88
2023/05/12 00:55:40;25784.00;0.09;45.28;0.00;0.00;0.62;;;;;16.90;1.00;;;;;;2256227;61;1018;-85
2023/05/12 00:58:07;90427.00;0.30;157.05;0.00;0.00;0.62;;;;;17.10;1.00;;;;;;2256244;61;1044;-89
2023/05/12 01:00:35;72631.00;0.24;126.31;0.00;0.00;0.62;;;;;17.00;1.00;;;;;;2256135;61;2007;-86
2023/05/12 01:03:02;6328.00;0.02;11.59;0.00;0.00;0.62;;;;;17.00;1.00;;;;;;2256155;61;1087;-87
2023/05/12 01:05:37;59074.00;0.20;102.88;0.00;0.00;0.62;;;;;16.90;1.00;;;;;;2256147;61;1356;-86
2023/05/12 01:08:06;12194.00;0.04;21.75;0.00;0.00;0.62;;;;;16.80;1.00;;;;;;2256165;61;1027;-85
2023/05/12 01:10:33;33334.00;0.11;58.35;0.00;0.00;0.62;;;;;16.70;1.00;;;;;;2256112;61;1087;-86
2023/05/12 01:12:59;11759.00;0.04;21.00;0.00;0.00;0.62;;;;;17.00;1.00;;;;;;2255994;61;2234;-87
2023/05/12 01:15:26;97199.00;0.32;168.74;0.00;0.00;0.62;;;;;16.70;1.00;;;;;;2256078;61;1328;-85
2023/05/12 01:18:01;7361.00;0.02;13.38;0.00;0.00;0.62;;;;;16.70;1.00;;;;;;2256110;61;1021;-86
2023/05/12 01:20:29;72306.00;0.24;125.75;0.00;0.00;0.62;;;;;16.50;1.00;;;;;;2255965;61;1995;-87
2023/05/12 01:22:57;180876.00;0.60;313.00;0.00;0.00;0.62;;;;;16.40;1.00;;;;;;2256071;61;1021;-86
2023/05/12 01:25:24;56098.00;0.19;97.73;0.00;0.00;0.62;;;;;16.40;1.00;;;;;;2256003;61;1420;-86
2023/05/12 01:27:53;82133.00;0.27;142.72;0.00;0.00;0.62;;;;;16.20;1.00;;;;;;2256039;61;1071;-87
2023/05/12 01:30:23;68199.00;0.23;118.65;0.00;0.00;0.62;;;;;16.20;1.00;;;;;;2255872;61;962;-85
2023/05/12 01:32:51;350243.00;1.17;604.28;122216.00;0.41;211.90;;;;;16.20;1.00;;;;;;2256120;61;1051;-86
2023/05/12 01:35:17;81164.00;0.27;141.05;0.00;0.00;0.62;;;;;16.10;1.00;;;;;;2256097;61;1370;-88
2023/05/12 01:37:45;120969.00;0.40;209.75;0.00;0.00;0.62;;;;;16.20;1.00;;;;;;2256179;61;1006;-88
2023/05/12 01:40:12;24672.00;0.08;43.36;0.00;0.00;0.62;;;;;16.10;1.00;;;;;;2256035;61;1995;-87
2023/05/12 01:42:39;66735.00;0.22;116.12;0.00;0.00;0.62;;;;;16.40;1.00;;;;;;2255978;61;1019;-88
2023/05/12 01:45:09;125003.00;0.42;216.71;0.00;0.00;0.62;;;;;16.60;1.00;;;;;;2255904;61;1405;-86
2023/05/12 01:47:36;184828.00;0.62;319.80;0.00;0.00;0.62;;;;;16.30;1.00;;;;;;2256050;61;1166;-86
2023/05/12 01:50:03;41506.00;0.14;72.49;0.00;0.00;0.62;;;;;16.50;1.00;;;;;;2256065;61;996;-86
2023/05/12 01:52:30;7288.00;0.02;13.25;0.00;0.00;0.62;;;;;16.50;1.00;;;;;;2256024;61;1086;-88
2023/05/12 01:54:57;94466.00;0.31;164.02;0.00;0.00;0.62;;;;;16.50;1.00;;;;;;2256010;61;1308;-88
2023/05/12 01:57:24;54849.00;0.18;95.57;0.00;0.00;0.62;;;;;16.40;1.00;;;;;;2256131;61;914;-86
2023/05/12 01:59:51;43269.00;0.14;75.54;0.00;0.00;0.62;;;;;16.50;1.00;;;;;;2256020;61;1977;-88
2023/05/12 02:02:19;36244.00;0.12;63.39;0.00;0.00;0.62;;;;;16.50;1.00;;;;;;2256102;61;958;-88
2023/05/12 02:04:46;65403.00;0.22;113.82;0.00;0.00;0.62;;;;;16.50;1.00;;;;;;2256009;61;1407;-88
2023/05/12 02:07:14;29779.00;0.10;52.20;0.00;0.00;0.62;;;;;16.60;1.00;;;;;;2256053;61;1038;-87
2023/05/12 02:09:41;90619.00;0.30;157.38;0.00;0.00;0.62;;;;;16.50;1.00;;;;;;2255951;61;1228;-87
2023/05/12 02:12:08;209627.00;0.70;362.49;65428.00;0.22;113.86;;;;;16.40;1.00;;;;;;2256007;61;1103;-86
2023/05/12 02:14:35;79166.00;0.26;137.60;0.00;0.00;0.62;;;;;16.10;1.00;;;;;;2255937;61;1367;-86
2023/05/12 02:17:03;8031.00;0.03;14.54;0.00;0.00;0.62;;;;;16.20;1.00;;;;;;2255914;61;1114;-88
2023/05/12 02:19:31;76501.00;0.26;132.99;0.00;0.00;0.62;;;;;16.60;1.00;;;;;;2255537;61;2050;-88
2023/05/12 02:21:58;12304.00;0.04;21.94;0.00;0.00;0.62;;;;;16.50;1.00;;;;;;2255597;61;1133;-88
2023/05/12 02:24:25;195593.00;0.65;338.34;0.00;0.00;0.62;;;;;16.50;1.00;;;;;;2255908;61;1322;-87
2023/05/12 02:26:52;28166.00;0.09;49.41;0.00;0.00;0.62;;;;;16.50;1.00;;;;;;2255908;61;1124;-88
2023/05/12 02:29:18;39747.00;0.13;69.45;0.00;0.00;0.62;;;;;16.60;1.00;;;;;;2255948;61;1080;-87
2023/05/12 02:31:45;13313.00;0.04;23.69;0.00;0.00;0.62;;;;;16.20;1.00;;;;;;2255934;61;1023;-88
2023/05/12 02:34:13;53061.00;0.18;92.48;0.00;0.00;0.62;;;;;16.00;1.00;;;;;;2255870;61;1313;-90
2023/05/12 02:36:41;56359.00;0.19;98.18;0.00;0.00;0.62;;;;;16.10;1.00;;;;;;2255870;61;1012;-87
2023/05/12 02:39:08;96373.00;0.32;167.31;0.00;0.00;0.62;;;;;16.10;1.00;;;;;;2255854;61;2000;-88
2023/05/12 02:41:35;0.00;0.00;0.62;0.00;0.00;0.62;;;;;16.00;1.00;;;;;;2255693;61;1068;-88
2023/05/12 02:44:02;74472.00;0.25;129.49;0.00;0.00;0.62;;;;;16.30;1.00;;;;;;2255748;61;1388;-87
2023/05/12 02:46:29;247664.00;0.83;427.93;48049.00;0.16;83.81;;;;;16.30;1.00;;;;;;2255858;61;1016;-88
2023/05/12 02:48:56;87309.00;0.29;151.66;0.00;0.00;0.62;;;;;16.20;1.00;;;;;;2255868;61;1052;-87
2023/05/12 02:51:23;0.00;0.00;0.62;0.00;0.00;0.62;;;;;16.30;1.00;;;;;;2255822;61;1042;-88
2023/05/12 02:53:51;346017.00;1.15;597.02;84660.00;0.28;147.09;;;;;16.50;1.00;;;;;;2255807;61;1281;-87
2023/05/12 02:56:18;103340.00;0.34;179.34;0.00;0.00;0.62;;;;;16.20;1.00;;;;;;2255773;61;1796;-88
2023/05/12 02:58:45;59604.00;0.20;103.79;0.00;0.00;0.62;;;;;16.40;1.00;;;;;;2255713;61;1104;-88
2023/05/12 03:01:12;134867.00;0.45;233.72;0.00;0.00;0.62;;;;;16.30;1.00;;;;;;2255673;61;2022;-87
2023/05/12 03:03:39;39349.00;0.13;68.76;0.00;0.00;0.62;;;;;16.40;1.00;;;;;;2255805;61;1264;-87
2023/05/12 03:06:06;255563.00;0.85;441.52;112265.00;0.37;194.74;;;;;16.40;1.00;;;;;;2255848;61;1757;-88
2023/05/12 03:08:35;44860.00;0.15;78.30;0.00;0.00;0.62;;;;;16.30;1.00;;;;;;2255848;61;1063;-87
2023/05/12 03:11:03;141545.00;0.47;245.23;0.00;0.00;0.62;;;;;16.30;1.00;;;;;;2255768;61;1075;-88
2023/05/12 03:13:30;97504.00;0.33;169.26;18969.00;0.06;33.48;;;;;16.40;1.00;;;;;;2255781;61;1362;-88
2023/05/12 03:16:00;76938.00;0.26;133.75;0.00;0.00;0.62;;;;;16.40;1.00;;;;;;2255761;61;1110;-87
2023/05/12 03:18:26;243498.00;0.81;420.77;80095.00;0.27;139.20;;;;;16.70;1.00;;;;;;2255892;61;1221;-88
2023/05/12 03:20:53;51954.00;0.17;90.57;0.00;0.00;0.62;;;;;16.70;1.00;;;;;;2255754;61;1989;-88
2023/05/12 03:23:20;65649.00;0.22;114.24;0.00;0.00;0.62;;;;;16.60;1.00;;;;;;2255824;61;1290;-88
2023/05/12 03:25:47;63744.00;0.21;110.95;0.00;0.00;0.62;;;;;16.70;1.00;;;;;;2255705;61;998;-86
2023/05/12 03:28:15;97634.00;0.33;169.49;0.00;0.00;0.62;;;;;16.60;1.00;;;;;;2255824;61;1091;-87
2023/05/12 03:30:42;144899.00;0.48;251.02;0.00;0.00;0.62;;;;;16.40;1.00;;;;;;2255858;61;1107;-87
2023/05/12 03:33:09;53706.00;0.18;93.59;0.00;0.00;0.62;;;;;16.10;1.00;;;;;;2255671;61;1736;-88
2023/05/12 03:35:36;136330.00;0.45;236.24;0.00;0.00;0.62;;;;;16.30;1.00;;;;;;2255877;61;1416;-88
2023/05/12 03:38:02;3518.00;0.01;6.72;0.00;0.00;0.62;;;;;16.60;1.00;;;;;;2255688;61;1066;-88
2023/05/12 03:40:29;20388.00;0.07;35.94;0.00;0.00;0.62;;;;;16.20;1.00;;;;;;2255782;61;1995;-87
2023/05/12 03:42:56;68735.00;0.23;119.57;0.00;0.00;0.62;;;;;16.30;1.00;;;;;;2255757;61;1050;-88
2023/05/12 03:45:24;28422.00;0.09;49.85;0.00;0.00;0.62;;;;;16.60;1.00;;;;;;2255717;61;1324;-87
2023/05/12 03:47:51;21504.00;0.07;37.87;0.00;0.00;0.62;;;;;16.70;1.00;;;;;;2255745;61;1131;-88
2023/05/12 03:50:18;75539.00;0.25;131.33;0.00;0.00;0.62;;;;;16.50;1.00;;;;;;2255838;61;1728;-87
2023/05/12 03:52:45;23094.00;0.08;40.63;0.00;0.00;0.62;;;;;16.50;1.00;;;;;;2256158;61;1062;-87
2023/05/12 03:55:12;93970.00;0.31;163.16;0.00;0.00;0.62;;;;;16.70;1.00;;;;;;2256452;61;1284;-87
2023/05/12 03:57:39;69501.00;0.23;120.90;0.00;0.00;0.62;;;;;16.80;1.00;;;;;;2256517;61;1036;-87
2023/05/12 04:00:07;37343.00;0.12;65.29;0.00;0.00;0.62;;;;;16.90;1.00;;;;;;2256369;61;1919;-88
2023/05/12 04:02:38;194095.00;0.65;335.76;0.00;0.00;0.62;;;;;16.90;1.00;;;;;;2256457;61;955;-87
2023/05/12 04:05:07;169771.00;0.57;293.87;0.00;0.00;0.62;;;;;16.80;1.00;;;;;;2256476;61;1345;-87
2023/05/12 04:07:33;135394.00;0.45;234.63;0.00;0.00;0.62;;;;;16.60;1.00;;;;;;2256506;61;1139;-85
2023/05/12 04:10:00;229410.00;0.76;396.53;53397.00;0.18;93.06;;;;;16.20;1.00;;;;;;2256514;61;1159;-87
2023/05/12 04:12:27;106984.00;0.36;185.63;0.00;0.00;0.62;;;;;16.10;1.00;;;;;;2256410;61;1100;-86
2023/05/12 04:14:54;211191.00;0.70;365.18;0.00;0.00;0.62;;;;;16.00;1.00;;;;;;2256275;61;1294;-87
2023/05/12 04:17:21;71530.00;0.24;124.40;0.00;0.00;0.62;;;;;16.10;1.00;;;;;;2256385;61;1135;-85
2023/05/12 04:19:49;50959.00;0.17;88.84;0.00;0.00;0.62;;;;;16.50;1.00;;;;;;2256420;61;1997;-86
2023/05/12 04:22:16;86461.00;0.29;150.20;0.00;0.00;0.62;;;;;16.30;1.00;;;;;;2256349;61;1616;-86
2023/05/12 04:24:43;172741.00;0.58;298.99;0.00;0.00;0.62;;;;;16.50;1.00;;;;;;2256231;61;1280;-86
2023/05/12 04:27:10;45740.00;0.15;79.82;0.00;0.00;0.62;;;;;16.40;1.00;;;;;;2256385;61;1128;-87
2023/05/12 04:29:37;160667.00;0.54;278.19;19657.00;0.07;34.68;;;;;16.30;1.00;;;;;;2256384;61;1024;-86
2023/05/12 04:32:04;104879.00;0.35;181.99;0.00;0.00;0.62;;;;;16.00;1.00;;;;;;2256417;61;1110;-87
2023/05/12 04:34:31;93406.00;0.31;162.19;0.00;0.00;0.62;;;;;16.00;1.00;;;;;;2256326;61;1316;-86
2023/05/12 04:36:59;151893.00;0.51;263.07;0.00;0.00;0.62;;;;;16.00;1.00;;;;;;2256362;61;1024;-87
2023/05/12 04:39:27;153219.00;0.51;265.35;0.00;0.00;0.62;;;;;16.10;1.00;;;;;;2256375;61;1089;-88
2023/05/12 04:41:54;74153.00;0.25;128.94;0.00;0.00;0.62;;;;;16.20;1.00;;;;;;2256242;61;1921;-88
2023/05/12 04:44:22;61779.00;0.21;107.55;0.00;0.00;0.62;;;;;16.10;1.00;;;;;;2256370;61;1391;-87
2023/05/12 04:46:52;78712.00;0.26;136.81;0.00;0.00;0.62;;;;;16.10;1.00;;;;;;2256390;61;938;-88
2023/05/12 04:49:19;150473.00;0.50;260.62;0.00;0.00;0.62;;;;;16.00;1.00;;;;;;2256379;61;1021;-87
2023/05/12 04:51:45;11052.00;0.04;19.77;0.00;0.00;0.62;;;;;16.20;1.00;;;;;;2256114;61;1563;-85
2023/05/12 04:54:14;66454.00;0.22;115.63;0.00;0.00;0.62;;;;;16.10;1.00;;;;;;2256247;61;1428;-88
2023/05/12 04:56:41;82051.00;0.27;142.58;0.00;0.00;0.62;;;;;16.30;1.00;;;;;;2256328;61;1272;-87
2023/05/12 04:59:08;104250.00;0.35;180.91;0.00;0.00;0.62;;;;;16.30;1.00;;;;;;2256345;61;1053;-87
2023/05/12 05:01:35;76647.00;0.26;133.25;0.00;0.00;0.62;;;;;16.40;1.00;;;;;;2256309;61;1935;-86
2023/05/12 05:04:02;131334.00;0.44;227.63;0.00;0.00;0.62;;;;;16.50;1.00;;;;;;2256089;61;1437;-87
2023/05/12 05:06:28;84562.00;0.28;146.92;0.00;0.00;0.62;;;;;16.50;1.00;;;;;;2256111;61;1661;-88
2023/05/12 05:08:56;40513.00;0.14;70.78;0.00;0.00;0.62;;;;;16.70;1.00;;;;;;2256340;61;1288;-85
2023/05/12 05:11:24;135447.00;0.45;234.72;0.00;0.00;0.62;;;;;16.80;1.00;;;;;;2255925;61;1605;-88
2023/05/12 05:16:20;395324.00;1.32;681.77;73950.00;0.25;128.59;;;;;16.80;1.00;;;;;;2282767;61;1420;-86
2023/05/12 05:18:47;348664.00;1.16;601.56;90299.00;0.30;156.82;;;;;16.80;1.00;;;;;;2280745;61;1090;-88
2023/05/12 05:21:14;89223.00;0.30;154.97;0.00;0.00;0.62;;;;;16.90;1.00;;;;;;2280645;61;1998;-88
2023/05/12 05:23:42;132487.00;0.44;229.62;0.00;0.00;0.62;;;;;16.90;1.00;;;;;;2280743;61;1290;-89
2023/05/12 05:26:09;9062.00;0.03;16.32;0.00;0.00;0.62;;;;;16.90;1.00;;;;;;2280719;61;1108;-89
2023/05/12 05:28:38;88703.00;0.30;154.07;0.00;0.00;0.62;;;;;16.60;1.00;;;;;;2280650;61;1042;-86
2023/05/12 05:31:05;95995.00;0.32;166.66;0.00;0.00;0.62;;;;;16.60;1.00;;;;;;2280744;61;1129;-87
2023/05/12 05:33:32;434949.00;1.45;749.90;95040.00;0.32;165.01;;;;;16.60;1.00;;;;;;2280624;61;1281;-87
2023/05/12 05:35:59;237626.00;0.79;410.67;0.00;0.00;0.62;;;;;16.50;1.00;;;;;;2280570;61;963;-87
2023/05/12 05:38:26;244857.00;0.82;423.11;41842.00;0.14;73.08;;;;;16.40;1.00;;;;;;2280545;61;1023;-88
2023/05/12 05:40:53;113990.00;0.38;197.71;0.00;0.00;0.62;;;;;16.50;1.00;;;;;;2280605;61;1919;-88
2023/05/12 05:43:20;73191.00;0.24;127.27;0.00;0.00;0.62;;;;;16.60;1.00;;;;;;2280673;61;1398;-87
2023/05/12 05:45:49;81318.00;0.27;141.31;0.00;0.00;0.62;;;;;16.90;1.00;;;;;;2280770;61;1102;-89
2023/05/12 05:48:16;72652.00;0.24;126.34;0.00;0.00;0.62;;;;;16.80;1.00;;;;;;2280620;61;1076;-88
2023/05/12 05:50:43;115050.00;0.38;199.54;0.00;0.00;0.62;;;;;16.80;1.00;;;;;;2280667;61;1068;-86
2023/05/12 05:53:10;62835.00;0.21;109.38;0.00;0.00;0.62;;;;;17.10;1.00;;;;;;2280722;61;1072;-87
2023/05/12 05:55:36;33829.00;0.11;59.21;0.00;0.00;0.62;;;;;17.30;1.00;;;;;;2280432;61;1036;-87
2023/05/12 05:58:04;63991.00;0.21;111.38;0.00;0.00;0.62;;;;;17.50;1.00;;;;;;2280529;61;1060;-87
2023/05/12 06:00:31;146518.00;0.49;253.81;0.00;0.00;0.62;;;;;17.30;1.00;;;;;;2280379;61;1935;-87
2023/05/12 06:02:59;15850.00;0.05;28.08;0.00;0.00;0.62;;;;;17.40;1.00;;;;;;2280587;61;1133;-87
2023/05/12 06:05:26;62768.00;0.21;109.26;0.00;0.00;0.62;;;;;17.20;1.00;;;;;;2280388;61;1290;-88
2023/05/12 06:07:53;270679.00;0.90;467.51;22684.00;0.08;39.92;;;;;17.40;1.00;;;;;;2280463;61;1019;-85
2023/05/12 06:10:20;84539.00;0.28;146.88;0.00;0.00;0.62;;;;;17.50;1.00;;;;;;2280482;61;1200;-88
2023/05/12 06:12:47;61208.00;0.20;106.57;0.00;0.00;0.62;;;;;17.60;1.00;;;;;;2280666;61;1063;-89
2023/05/12 06:15:14;75320.00;0.25;130.95;0.00;0.00;0.62;;;;;17.90;1.00;;;;;;2280371;61;1389;-87
2023/05/12 06:17:41;0.00;0.00;0.62;0.00;0.00;0.62;;;;;18.20;1.00;;;;;;2280577;61;1070;-86
2023/05/12 06:20:12;28810.00;0.10;50.52;0.00;0.00;0.62;;;;;18.30;1.00;;;;;;2280619;61;1062;-87
2023/05/12 06:22:41;42968.00;0.14;75.02;0.00;0.00;0.62;;;;;18.40;1.00;;;;;;2280588;61;998;-87
2023/05/12 06:25:08;107558.00;0.36;186.62;0.00;0.00;0.62;;;;;18.30;1.00;;;;;;2280542;61;1393;-87
2023/05/12 06:27:35;203342.00;0.68;351.68;94509.00;0.32;164.09;;;;;18.30;1.00;;;;;;2280655;61;1035;-88
2023/05/12 06:30:03;185327.00;0.62;320.66;90956.00;0.30;157.96;;;;;18.60;1.00;;;;;;2280657;61;1137;-86
2023/05/12 06:32:30;194969.00;0.65;337.26;91882.00;0.31;159.56;;;;;18.60;1.00;;;;;;2280479;61;1104;-86
2023/05/12 06:34:56;266882.00;0.89;460.98;88246.00;0.29;153.28;;;;;18.70;1.00;;;;;;2280424;61;1429;-88
2023/05/12 06:37:25;443711.00;1.48;764.97;118831.00;0.40;206.07;;;;;18.50;1.00;;;;;;2280525;61;1921;-87
2023/05/12 06:39:52;172240.00;0.57;298.12;87438.00;0.29;151.88;;;;;18.80;1.00;;;;;;2280487;61;1613;-85
2023/05/12 06:42:18;189175.00;0.63;327.29;71558.00;0.24;124.45;;;;;18.60;1.00;;;;;;2280481;61;2024;-87
2023/05/12 06:44:45;192911.00;0.64;333.72;88113.00;0.29;153.05;;;;;18.60;1.00;;;;;;2280443;61;1796;-86
2023/05/12 06:47:12;284985.00;0.95;492.11;131284.00;0.44;227.54;;;;;18.90;1.00;;;;;;2280514;61;1113;-89
2023/05/12 06:49:39;401432.00;1.34;692.27;105519.00;0.35;183.10;;;;;19.00;1.00;;;;;;2276860;61;1241;-87
2023/05/12 06:52:07;113799.00;0.38;197.38;0.00;0.00;0.62;;;;;18.90;1.00;;;;;;2280316;61;1674;-89
2023/05/12 06:54:35;370872.00;1.24;639.74;86960.00;0.29;151.06;;;;;18.30;1.00;;;;;;2280263;61;1370;-87
2023/05/12 06:57:02;229208.00;0.76;396.19;82949.00;0.28;144.13;;;;;18.40;1.00;;;;;;2280368;61;1039;-86
2023/05/12 06:59:29;226572.00;0.76;391.65;79760.00;0.27;138.62;;;;;18.50;1.00;;;;;;2280348;61;1121;-88
2023/05/12 07:01:56;107569.00;0.36;186.64;0.00;0.00;0.62;;;;;18.90;1.00;;;;;;2280251;61;1994;-86
2023/05/12 07:04:25;3316.00;0.01;6.37;0.00;0.00;0.62;;;;;19.00;1.00;;;;;;2280295;61;1414;-88
2023/05/12 07:06:52;345843.00;1.15;596.72;129400.00;0.43;224.29;;;;;19.00;1.00;;;;;;2280227;61;1111;-88
2023/05/12 07:09:19;67600.00;0.23;117.61;0.00;0.00;0.62;;;;;19.00;1.00;;;;;;2280327;61;1325;-86
2023/05/12 07:11:48;163762.00;0.55;283.52;0.00;0.00;0.62;;;;;19.00;1.00;;;;;;2280251;61;1062;-88
2023/05/12 07:14:15;119170576.00;397.24;68557224.00;119050728.00;396.84;68350400.00;;;;;19.30;1.00;;;;;;2280242;61;1327;-87
2023/05/12 07:16:42;200613.00;0.67;346.98;93263.00;0.31;161.94;;;;;19.30;1.00;;;;;;2280366;61;1089;-86
2023/05/12 07:19:09;100773.00;0.34;174.91;0.00;0.00;0.62;;;;;19.50;1.00;;;;;;2280310;61;1164;-87
2023/05/12 07:21:36;114794.00;0.38;199.10;0.00;0.00;0.62;;;;;20.00;1.00;;;;;;2280572;61;1994;-87
2023/05/12 07:24:04;125262.00;0.42;217.16;0.00;0.00;0.62;;;;;20.10;1.00;;;;;;2280325;61;1398;-88
2023/05/12 07:26:31;9424.00;0.03;16.95;0.00;0.00;0.62;;;;;20.20;1.00;;;;;;2280352;61;1705;-87
2023/05/12 07:29:01;27976.00;0.09;49.08;0.00;0.00;0.62;;;;;20.40;1.00;;;;;;2280479;61;874;-85
2023/05/12 07:31:28;55739.00;0.19;97.11;0.00;0.00;0.62;;;;;20.20;1.00;;;;;;2280364;61;1496;-88
2023/05/12 07:33:55;94986.00;0.32;164.92;0.00;0.00;0.62;;;;;19.90;1.00;;;;;;2280178;61;1363;-87
2023/05/12 07:36:22;25745.00;0.09;45.22;0.00;0.00;0.62;;;;;19.90;1.00;;;;;;2280392;61;1165;-88
2023/05/12 07:38:49;31037.00;0.10;54.38;87525.00;0.29;152.03;;;;;20.00;1.00;;;;;;2280405;61;1148;-88
2023/05/12 07:41:16;117353200.00;391.18;65465564.00;85490.00;0.28;148.52;;;;;20.00;1.00;;;;;;2280191;61;1911;-89
2023/05/12 07:43:43;198330.00;0.66;343.05;74917.00;0.25;130.26;;;;;20.10;1.00;;;;;;2280215;61;1394;-87
2023/05/12 07:46:11;41226.00;0.14;72.01;0.00;0.00;0.62;;;;;20.30;1.00;;;;;;2280284;61;1165;-87
2023/05/12 07:48:39;2991.00;0.01;5.80;0.00;0.00;0.62;;;;;20.00;1.00;;;;;;2280273;61;997;-86
2023/05/12 07:51:06;117285832.00;390.95;65352776.00;117174040.00;390.58;65165920.00;;;;;20.40;1.00;;;;;;2280406;61;1101;-88
2023/05/12 07:53:33;246452.00;0.82;425.85;95328.00;0.32;165.51;;;;;20.60;1.00;;;;;;2280416;61;1316;-87
2023/05/12 07:56:00;193657.00;0.65;335.00;83297.00;0.28;144.73;;;;;21.00;1.00;;;;;;2280129;61;2180;-87
2023/05/12 07:58:27;205072.00;0.68;354.65;76096.00;0.25;132.29;;;;;21.20;1.00;;;;;;2280316;61;1602;-88
2023/05/12 08:00:55;176031.00;0.59;304.65;89221.00;0.30;154.96;;;;;21.70;1.00;;;;;;2280112;61;2006;-88
2023/05/12 08:03:24;207611.00;0.69;359.02;103951.00;0.35;180.39;;;;;22.50;1.00;;;;;;2280255;61;1362;-87
2023/05/12 08:05:51;176327.00;0.59;305.16;84789.00;0.28;147.31;;;;;22.90;1.00;;;;;;2280264;61;1118;-86
2023/05/12 09:05:32;994369.00;3.31;1722.50;98315.00;0.33;170.66;;;;;20.40;1.00;;;;;;2491968;40;3576;31
2023/05/12 10:37:34;855106.00;2.85;1477.40;74674.00;0.25;129.84;;;;;21.90;1.00;;;;;;2416927;40;3676;-88
2023/05/12 10:57:21;490833.00;1.64;846.04;0.00;0.00;0.62;;;;;19.10;1.00;;;;;;2258776;61;1303;-87
2023/05/12 11:59:29;564130.00;1.88;972.32;0.00;0.00;0.62;;;;;20.30;1.00;;;;;;2325818;40;3498;-85
2023/05/12 12:02:00;34404.00;0.11;60.21;0.00;0.00;0.62;;;;;20.00;1.00;;;;;;2264030;61;1131;-85
2023/05/12 12:04:35;132899.00;0.44;230.33;0.00;0.00;0.62;;;;;19.70;1.00;;;;;;2263719;61;2010;-85
2023/05/12 12:07:02;100106.00;0.33;173.75;0.00;0.00;0.62;;;;;19.60;1.00;;;;;;2279435;40;3634;-86
2023/05/12 12:26:48;292062.00;0.97;504.27;0.00;0.00;0.62;;;;;21.80;1.00;;;;;;2265567;61;1369;-89
2023/05/12 12:46:48;868076.00;2.89;1500.12;108626.00;0.36;188.46;;;;;21.60;1.00;;;;;;2471217;55;3706;31
2023/05/12 13:26:25;759758.00;2.53;1311.03;82755.00;0.28;143.80;;;;;17.80;1.00;;;;;;2265558;61;1180;-85
2023/05/12 13:28:52;588721.00;1.96;1014.75;74027.00;0.25;128.72;;;;;18.00;1.00;;;;;;2263728;61;1256;-86
2023/05/12 13:36:18;1051092.00;3.50;1823.18;92746.00;0.31;161.05;;;;;18.40;1.00;;;;;;2265361;61;1460;-84
2023/05/12 13:38:44;994917.00;3.32;1723.47;85309.00;0.28;148.21;;;;;18.50;1.00;;;;;;2263605;61;1617;-84
2023/05/12 13:43:41;787669.00;2.63;1359.63;82879.00;0.28;144.01;;;;;18.50;1.00;;;;;;2265571;61;1919;-85
2023/05/12 13:48:39;862654.00;2.88;1490.62;78687.00;0.26;136.77;;;;;18.90;1.00;;;;;;2269592;61;1570;-85
2023/05/12 13:51:06;526084.00;1.75;906.75;0.00;0.00;0.62;;;;;18.70;1.00;;;;;;2267977;61;1735;-85
2023/05/12 13:56:01;991870.00;3.31;1718.08;46613.00;0.16;81.33;;;;;18.70;1.00;;;;;;2265809;61;1377;-86
2023/05/12 15:25:03;556002.00;1.85;958.31;0.00;0.00;0.62;;;;;19.60;1.00;;;;;;2502600;41;3375;31
2023/05/12 17:38:37;506082.00;1.69;872.30;0.00;0.00;0.62;;;;;16.60;1.00;;;;;;2265867;61;1415;-84
2023/05/12 17:45:59;476212.00;1.59;820.88;0.00;0.00;0.62;;;;;16.50;1.00;;;;;;2265913;61;1969;-83
2023/05/12 17:48:29;99533.00;0.33;172.77;0.00;0.00;0.62;;;;;16.40;1.00;;;;;;2264198;61;1297;-83
2023/05/12 18:06:07;50437.00;0.17;87.94;0.00;0.00;0.62;;;;;16.30;1.00;;;;;;2528446;56;1761;31
2023/05/12 18:18:34;550788.00;1.84;949.32;0.00;0.00;0.62;;;;;15.60;1.80;;;;;;2262262;61;1400;-83
2023/05/12 18:26:05;761812.00;2.54;1314.60;0.00;0.00;0.62;;;;;15.60;1.00;;;;;;2258476;61;1943;-84
2023/05/12 18:28:32;465776.00;1.55;802.92;0.00;0.00;0.62;;;;;15.70;1.00;;;;;;2256190;61;1770;-84
2023/05/12 18:53:29;744312.00;2.48;1284.17;0.00;0.00;0.62;;;;;17.00;1.00;;;;;;2422098;40;3578;31
2023/05/12 21:51:24;851273.00;2.84;1470.70;0.00;0.00;0.62;;;;;15.40;1.00;;;;;;2257239;61;1413;-84
2023/05/12 22:11:25;712400.00;2.37;1228.75;0.00;0.00;0.62;;;;;15.10;1.00;;;;;;2257124;61;1389;-84
2023/05/12 22:18:50;692731.00;2.31;1194.64;0.00;0.00;0.62;;;;;14.70;1.00;;;;;;2257857;61;1826;-83
2023/05/12 23:43:28;585315.00;1.95;1008.87;0.00;0.00;0.62;;;;;13.50;4.30;;;;;;2261099;61;1429;-84
2023/05/12 23:45:55;84278.00;0.28;146.43;0.00;0.00;0.62;;;;;13.50;4.60;;;;;;2488416;40;3994;31
